createdAt,value
2018-09-29T00:00:02.591Z,5.95
2018-09-29T00:02:31.225Z,9.00
2018-09-29T00:04:59.870Z,9.05
2018-09-29T00:07:28.417Z,8.88
2018-09-29T00:09:56.997Z,7.67
2018-09-29T00:12:25.773Z,7.03
2018-09-29T00:14:54.553Z,7.20
2018-09-29T00:17:24.288Z,6.08
2018-09-29T00:19:53.029Z,9.38
2018-09-29T00:22:21.626Z,8.43
2018-09-29T00:24:52.629Z,6.40
2018-09-29T00:27:21.215Z,8.98
2018-09-29T00:29:49.929Z,7.92
2018-09-29T00:32:18.694Z,7.83
2018-09-29T00:34:47.645Z,6.40
2018-09-29T00:37:16.324Z,8.20
2018-09-29T00:39:44.971Z,6.47
2018-09-29T00:42:13.732Z,6.72
2018-09-29T00:44:42.421Z,6.92
2018-09-29T00:47:11.124Z,7.77
2018-09-29T00:49:39.852Z,10.53
2018-09-29T00:52:09.898Z,8.45
2018-09-29T00:54:38.446Z,6.78
2018-09-29T00:57:07.291Z,9.83
2018-09-29T00:59:35.992Z,10.23
2018-09-29T01:02:04.724Z,8.43
2018-09-29T01:04:34.121Z,10.60
2018-09-29T01:07:02.788Z,7.50
2018-09-29T01:09:31.459Z,8.50
2018-09-29T01:12:00.174Z,7.80
2018-09-29T01:14:28.730Z,8.43
2018-09-29T01:16:58.122Z,9.08
2018-09-29T01:19:26.805Z,7.58
2018-09-29T01:21:57.581Z,7.58
2018-09-29T01:24:26.248Z,9.88
2018-09-29T01:26:56.172Z,5.90
2018-09-29T01:29:24.860Z,7.95
2018-09-29T01:31:53.604Z,8.10
2018-09-29T01:34:22.205Z,9.73
2018-09-29T01:36:50.911Z,8.73
2018-09-29T01:39:19.783Z,8.63
2018-09-29T01:41:48.494Z,7.63
2018-09-29T01:44:17.100Z,6.83
2018-09-29T01:46:45.858Z,9.58
2018-09-29T01:49:14.509Z,10.25
2018-09-29T01:51:43.146Z,7.28
2018-09-29T01:54:11.794Z,9.13
2018-09-29T01:56:40.554Z,8.23
2018-09-29T01:59:09.211Z,8.63
2018-09-29T02:01:38.018Z,8.40
2018-09-29T02:04:06.843Z,9.60
2018-09-29T02:06:35.493Z,7.30
2018-09-29T02:09:04.633Z,9.38
2018-09-29T02:11:33.339Z,7.75
2018-09-29T02:14:02.139Z,9.33
2018-09-29T02:16:31.810Z,8.25
2018-09-29T02:19:00.537Z,9.80
2018-09-29T02:21:29.666Z,8.25
2018-09-29T02:23:58.378Z,9.30
2018-09-29T02:26:27.086Z,9.70
2018-09-29T02:28:58.558Z,7.55
2018-09-29T02:31:27.277Z,8.93
2018-09-29T02:33:56.122Z,8.30
2018-09-29T02:36:26.226Z,8.30
2018-09-29T02:38:55.839Z,8.03
2018-09-29T02:41:24.605Z,9.48
2018-09-29T02:43:53.428Z,10.32
2018-09-29T02:46:22.154Z,10.55
2018-09-29T02:48:50.846Z,9.20
2018-09-29T02:51:19.547Z,9.88
2018-09-29T02:53:48.286Z,11.17
2018-09-29T02:56:17.010Z,8.75
2018-09-29T02:58:45.780Z,10.60
2018-09-29T03:01:14.353Z,9.40
2018-09-29T03:03:43.027Z,7.90
2018-09-29T03:06:11.704Z,10.65
2018-09-29T03:08:40.430Z,7.83
2018-09-29T03:11:09.396Z,10.30
2018-09-29T03:13:38.228Z,7.47
2018-09-29T03:16:06.894Z,8.28
2018-09-29T03:18:35.691Z,7.72
2018-09-29T03:21:04.312Z,7.95
2018-09-29T03:23:32.928Z,9.40
2018-09-29T03:26:01.960Z,7.28
2018-09-29T03:28:30.634Z,7.53
2018-09-29T03:30:59.173Z,7.37
2018-09-29T03:33:27.842Z,8.85
2018-09-29T03:35:56.477Z,15.70
2018-09-29T03:38:26.328Z,7.37
2018-09-29T03:40:55.075Z,5.83
2018-09-29T03:43:25.400Z,10.43
2018-09-29T03:45:54.259Z,7.67
2018-09-29T03:48:25.347Z,6.53
2018-09-29T03:50:54.142Z,8.28
2018-09-29T03:53:22.853Z,6.30
2018-09-29T03:55:52.873Z,9.73
2018-09-29T03:58:21.922Z,3.67
2018-09-29T04:00:51.423Z,6.22
2018-09-29T04:03:20.098Z,5.28
2018-09-29T04:05:49.187Z,9.58
2018-09-29T04:08:17.827Z,7.50
2018-09-29T04:10:46.516Z,6.70
2018-09-29T04:13:15.263Z,6.78
2018-09-29T04:15:43.957Z,7.97
2018-09-29T04:18:13.414Z,7.15
2018-09-29T04:20:42.139Z,6.17
2018-09-29T04:23:10.826Z,6.65
2018-09-29T04:25:39.465Z,8.38
2018-09-29T04:28:08.182Z,7.37
2018-09-29T04:30:39.405Z,8.80
2018-09-29T04:33:08.092Z,6.10
2018-09-29T04:35:36.791Z,4.85
2018-09-29T04:38:05.468Z,5.10
2018-09-29T04:40:34.240Z,5.35
2018-09-29T04:43:02.866Z,5.33
2018-09-29T04:45:31.514Z,7.87
2018-09-29T04:48:00.130Z,7.72
2018-09-29T04:50:28.826Z,8.40
2018-09-29T04:52:57.620Z,7.05
2018-09-29T04:55:26.199Z,5.67
2018-09-29T04:57:54.817Z,4.50
2018-09-29T05:00:23.616Z,6.72
2018-09-29T05:02:52.412Z,6.08
2018-09-29T05:05:21.109Z,5.97
2018-09-29T05:07:50.337Z,6.23
2018-09-29T05:10:19.011Z,6.28
2018-09-29T05:12:47.701Z,4.75
2018-09-29T05:15:16.450Z,6.03
2018-09-29T05:17:45.150Z,8.18
2018-09-29T05:20:23.184Z,5.65
2018-09-29T05:23:02.451Z,5.53
2018-09-29T05:25:31.422Z,5.10
2018-09-29T05:28:00.014Z,6.20
2018-09-29T05:30:30.646Z,5.58
2018-09-29T05:32:59.335Z,6.97
2018-09-29T05:35:28.138Z,5.65
2018-09-29T05:37:56.929Z,7.80
2018-09-29T05:40:25.581Z,7.08
2018-09-29T05:42:54.611Z,5.33
2018-09-29T05:45:23.431Z,6.28
2018-09-29T05:47:52.082Z,4.87
2018-09-29T05:50:20.771Z,6.45
2018-09-29T05:52:49.671Z,7.33
2018-09-29T05:55:20.257Z,5.35
2018-09-29T05:57:49.126Z,6.83
2018-09-29T06:00:19.525Z,5.33
2018-09-29T06:02:48.255Z,7.05
2018-09-29T06:05:18.211Z,7.05
2018-09-29T06:07:47.022Z,5.78
2018-09-29T06:10:15.719Z,5.83
2018-09-29T06:12:44.471Z,4.72
2018-09-29T06:15:15.261Z,5.20
2018-09-29T06:17:43.975Z,5.50
2018-09-29T06:20:12.691Z,7.28
2018-09-29T06:22:41.561Z,6.20
2018-09-29T06:25:10.390Z,6.12
2018-09-29T06:27:39.695Z,6.92
2018-09-29T06:30:08.372Z,7.53
2018-09-29T06:32:37.075Z,4.47
2018-09-29T06:35:05.830Z,5.72
2018-09-29T06:37:34.656Z,6.40
2018-09-29T06:40:03.319Z,7.03
2018-09-29T06:42:31.979Z,6.85
2018-09-29T06:45:00.740Z,5.62
2018-09-29T06:47:29.434Z,5.92
2018-09-29T06:49:58.408Z,5.07
2018-09-29T06:52:27.276Z,6.87
2018-09-29T06:54:56.006Z,6.95
2018-09-29T06:57:24.746Z,5.70
2018-09-29T06:59:53.523Z,5.00
2018-09-29T07:02:22.175Z,6.75
2018-09-29T07:04:50.892Z,8.48
2018-09-29T07:07:19.697Z,4.87
2018-09-29T07:09:48.431Z,4.90
2018-09-29T07:12:17.281Z,6.43
2018-09-29T07:14:46.267Z,7.27
2018-09-29T07:17:15.090Z,5.12
2018-09-29T07:19:43.701Z,5.03
2018-09-29T07:22:12.391Z,5.47
2018-09-29T07:24:41.111Z,10.23
2018-09-29T07:27:10.726Z,8.30
2018-09-29T07:29:39.655Z,8.37
2018-09-29T07:32:15.872Z,5.80
2018-09-29T07:34:50.146Z,7.25
2018-09-29T07:37:18.988Z,6.40
2018-09-29T07:39:47.658Z,6.67
2018-09-29T07:42:16.893Z,5.30
2018-09-29T07:44:45.678Z,5.67
2018-09-29T07:47:14.435Z,6.42
2018-09-29T07:49:43.206Z,4.05
2018-09-29T07:52:11.968Z,4.30
2018-09-29T07:54:41.175Z,5.03
2018-09-29T07:57:09.879Z,8.68
2018-09-29T07:59:38.640Z,7.00
2018-09-29T08:02:07.458Z,5.20
2018-09-29T08:04:36.174Z,4.53
2018-09-29T08:07:05.191Z,8.23
2018-09-29T08:09:33.962Z,4.90
2018-09-29T08:12:02.667Z,4.58
2018-09-29T08:14:31.352Z,5.15
2018-09-29T08:17:00.140Z,5.97
2018-09-29T08:19:28.803Z,6.62
2018-09-29T08:21:57.474Z,6.90
2018-09-29T08:24:26.457Z,5.78
2018-09-29T08:26:55.091Z,8.65
2018-09-29T08:29:23.848Z,6.22
2018-09-29T08:31:52.520Z,4.40
2018-09-29T08:34:21.255Z,4.78
2018-09-29T08:36:49.953Z,5.80
2018-09-29T08:39:18.748Z,5.28
2018-09-29T08:41:48.648Z,4.85
2018-09-29T08:44:17.248Z,3.52
2018-09-29T08:48:15.705Z,4.25
2018-09-29T08:50:44.319Z,4.92
2018-09-29T08:53:13.079Z,3.45
2018-09-29T08:55:42.078Z,3.83
2018-09-29T08:58:10.817Z,5.97
2018-09-29T09:00:40.160Z,3.92
2018-09-29T09:03:08.890Z,5.95
2018-09-29T09:05:46.472Z,6.35
2018-09-29T09:08:25.791Z,4.00
2018-09-29T09:10:57.979Z,3.40
2018-09-29T09:13:26.831Z,3.67
2018-09-29T09:15:55.649Z,6.20
2018-09-29T09:18:24.351Z,5.87
2018-09-29T09:20:53.134Z,4.78
2018-09-29T09:23:22.105Z,3.67
2018-09-29T09:25:50.938Z,5.17
2018-09-29T09:28:19.566Z,2.52
2018-09-29T09:30:48.270Z,3.87
2018-09-29T09:33:16.961Z,5.53
2018-09-29T09:35:45.666Z,5.17
2018-09-29T09:40:52.576Z,5.17
2018-09-29T09:43:21.295Z,4.60
2018-09-29T09:45:50.092Z,4.00
2018-09-29T09:48:18.891Z,3.85
2018-09-29T09:50:47.582Z,4.30
2018-09-29T09:53:16.319Z,4.15
2018-09-29T09:55:45.111Z,3.08
2018-09-29T09:58:14.396Z,7.62
2018-09-29T10:00:48.326Z,4.00
2018-09-29T10:03:23.793Z,4.17
2018-09-29T10:05:52.521Z,4.33
2018-09-29T10:08:23.539Z,4.05
2018-09-29T10:10:52.206Z,5.30
2018-09-29T10:13:20.914Z,2.80
2018-09-29T10:15:51.329Z,4.10
2018-09-29T10:18:20.257Z,4.33
2018-09-29T10:20:49.090Z,2.77
2018-09-29T10:23:18.351Z,4.58
2018-09-29T10:25:46.996Z,4.03
2018-09-29T10:28:15.846Z,5.53
2018-09-29T10:30:44.579Z,6.47
2018-09-29T10:33:13.263Z,4.55
2018-09-29T10:35:42.152Z,3.70
2018-09-29T10:38:11.198Z,3.72
2018-09-29T10:40:39.947Z,2.52
2018-09-29T10:43:08.844Z,3.30
2018-09-29T10:45:37.473Z,4.15
2018-09-29T10:48:09.779Z,4.72
2018-09-29T10:50:38.805Z,4.60
2018-09-29T10:53:07.475Z,4.75
2018-09-29T10:55:36.172Z,4.42
2018-09-29T10:58:05.721Z,4.08
2018-09-29T11:00:34.550Z,3.05
2018-09-29T11:03:03.293Z,4.50
2018-09-29T11:05:31.863Z,4.62
2018-09-29T11:08:00.631Z,10.48
2018-09-29T11:10:29.380Z,5.08
2018-09-29T11:12:57.956Z,11.38
2018-09-29T11:15:26.581Z,4.03
2018-09-29T11:17:55.273Z,2.37
2018-09-29T11:20:23.938Z,5.97
2018-09-29T11:22:52.591Z,3.62
2018-09-29T11:25:21.731Z,4.00
2018-09-29T11:27:50.565Z,4.22
2018-09-29T11:30:19.302Z,2.50
2018-09-29T11:32:53.093Z,4.93
2018-09-29T11:35:22.014Z,4.97
2018-09-29T11:37:50.634Z,4.25
2018-09-29T11:40:19.472Z,4.77
2018-09-29T11:42:49.727Z,5.22
2018-09-29T11:45:18.974Z,4.92
2018-09-29T11:47:47.671Z,4.17
2018-09-29T11:50:17.352Z,4.30
2018-09-29T11:52:46.073Z,5.17
2018-09-29T11:55:16.101Z,5.28
2018-09-29T11:57:44.899Z,4.47
2018-09-29T12:00:13.678Z,4.43
2018-09-29T12:02:42.411Z,3.60
2018-09-29T12:05:11.594Z,4.28
2018-09-29T12:07:40.403Z,3.50
2018-09-29T12:10:09.057Z,6.90
2018-09-29T12:12:38.268Z,6.90
2018-09-29T12:15:07.014Z,5.15
2018-09-29T12:17:35.668Z,3.75
2018-09-29T12:20:04.277Z,7.90
2018-09-29T12:22:32.929Z,6.40
2018-09-29T12:25:01.575Z,4.87
2018-09-29T12:27:30.271Z,3.83
2018-09-29T12:29:59.058Z,4.10
2018-09-29T12:32:27.727Z,5.50
2018-09-29T12:34:56.295Z,5.15
2018-09-29T12:37:25.145Z,4.67
2018-09-29T12:39:53.828Z,3.83
2018-09-29T12:42:22.534Z,4.07
2018-09-29T12:44:51.230Z,3.42
2018-09-29T12:47:19.790Z,4.40
2018-09-29T12:49:48.515Z,3.65
2018-09-29T12:52:17.242Z,5.00
2018-09-29T12:54:46.000Z,7.47
2018-09-29T12:57:14.680Z,5.83
2018-09-29T12:59:43.422Z,5.03
2018-09-29T13:02:12.093Z,6.37
2018-09-29T13:04:40.843Z,4.33
2018-09-29T13:07:09.679Z,5.60
2018-09-29T13:09:38.382Z,5.00
2018-09-29T13:12:07.346Z,6.37
2018-09-29T13:14:36.022Z,4.40
2018-09-29T13:17:04.815Z,4.72
2018-09-29T13:19:33.403Z,7.05
2018-09-29T13:22:02.101Z,4.40
2018-09-29T13:24:30.900Z,2.22
2018-09-29T13:26:59.728Z,2.90
2018-09-29T13:29:28.810Z,2.92
2018-09-29T13:31:57.538Z,4.92
2018-09-29T13:34:26.434Z,3.65
2018-09-29T13:36:55.504Z,6.27
2018-09-29T13:39:24.138Z,6.00
2018-09-29T13:41:54.816Z,10.88
2018-09-29T13:44:23.514Z,4.67
2018-09-29T13:46:52.232Z,4.45
2018-09-29T13:49:20.924Z,3.95
2018-09-29T13:51:49.845Z,3.63
2018-09-29T13:54:18.623Z,3.50
2018-09-29T13:56:48.091Z,3.22
2018-09-29T13:59:16.941Z,3.70
2018-09-29T14:01:45.709Z,4.62
2018-09-29T14:04:14.546Z,4.15
2018-09-29T14:06:43.601Z,3.00
2018-09-29T14:09:12.359Z,4.35
2018-09-29T14:11:41.098Z,3.50
2018-09-29T14:14:10.894Z,5.03
2018-09-29T14:16:41.371Z,3.58
2018-09-29T14:19:10.055Z,3.77
2018-09-29T14:21:38.748Z,3.45
2018-09-29T14:24:07.524Z,4.45
2018-09-29T14:26:36.250Z,2.40
2018-09-29T14:29:06.479Z,3.40
2018-09-29T14:31:35.155Z,4.60
2018-09-29T14:34:03.912Z,3.25
2018-09-29T14:36:32.696Z,5.03
2018-09-29T14:39:01.622Z,4.67
2018-09-29T14:41:30.219Z,7.20
2018-09-29T14:43:58.938Z,4.28
2018-09-29T14:46:27.653Z,6.00
2018-09-29T14:48:56.253Z,3.05
2018-09-29T14:51:24.961Z,3.97
2018-09-29T14:53:53.565Z,4.15
2018-09-29T14:56:22.243Z,7.35
2018-09-29T14:58:54.067Z,3.85
2018-09-29T15:01:22.989Z,3.85
2018-09-29T15:03:51.742Z,6.22
2018-09-29T15:06:20.386Z,6.90
2018-09-29T15:08:51.882Z,4.37
2018-09-29T15:11:20.592Z,3.17
2018-09-29T15:13:49.342Z,4.53
2018-09-29T15:16:18.006Z,4.40
2018-09-29T15:18:49.009Z,4.50
2018-09-29T15:21:17.853Z,4.85
2018-09-29T15:23:47.665Z,2.58
2018-09-29T15:26:16.414Z,2.90
2018-09-29T15:28:45.137Z,4.08
2018-09-29T15:31:14.073Z,5.03
2018-09-29T15:33:42.916Z,7.10
2018-09-29T15:36:13.260Z,3.47
2018-09-29T15:38:42.061Z,3.20
2018-09-29T15:41:11.126Z,4.10
2018-09-29T15:43:39.917Z,4.30
2018-09-29T15:46:10.627Z,3.67
2018-09-29T15:48:39.314Z,3.60
2018-09-29T15:51:08.101Z,3.40
2018-09-29T15:53:37.054Z,4.00
2018-09-29T15:56:05.876Z,5.65
2018-09-29T15:58:35.439Z,4.00
2018-09-29T16:01:04.394Z,4.35
2018-09-29T16:03:33.324Z,2.83
2018-09-29T16:06:02.035Z,2.00
2018-09-29T16:08:30.816Z,3.72
2018-09-29T16:10:59.689Z,4.03
2018-09-29T16:13:28.333Z,9.13
2018-09-29T16:15:57.064Z,3.22
2018-09-29T16:18:25.612Z,5.15
2018-09-29T16:20:55.923Z,2.77
2018-09-29T16:23:24.537Z,2.95
2018-09-29T16:25:53.283Z,3.50
2018-09-29T16:28:23.734Z,5.87
2018-09-29T16:30:53.046Z,6.08
2018-09-29T16:33:21.998Z,3.87
2018-09-29T16:35:50.879Z,5.72
2018-09-29T16:38:19.679Z,5.85
2018-09-29T16:40:48.466Z,5.92
2018-09-29T16:43:17.431Z,4.70
2018-09-29T16:45:46.079Z,6.40
2018-09-29T16:48:17.547Z,4.12
2018-09-29T16:50:48.071Z,3.90
2018-09-29T16:53:18.885Z,3.52
2018-09-29T16:55:47.496Z,4.35
2018-09-29T16:58:16.148Z,5.00
2018-09-29T17:00:45.034Z,4.22
2018-09-29T17:03:14.311Z,6.47
2018-09-29T17:05:43.096Z,3.40
2018-09-29T17:08:11.851Z,4.67
2018-09-29T17:10:44.707Z,11.55
2018-09-29T17:13:17.777Z,14.75
2018-09-29T17:15:47.689Z,8.65
2018-09-29T17:18:26.650Z,9.70
2018-09-29T17:21:06.824Z,6.08
2018-09-29T17:23:45.080Z,6.17
2018-09-29T17:26:21.315Z,5.97
2018-09-29T17:28:57.092Z,4.28
2018-09-29T17:31:33.386Z,4.95
2018-09-29T17:34:07.865Z,5.62
2018-09-29T17:36:39.871Z,3.75
2018-09-29T17:39:11.354Z,6.03
2018-09-29T17:41:40.293Z,6.78
2018-09-29T17:44:10.095Z,4.70
2018-09-29T17:46:42.792Z,3.58
2018-09-29T17:49:11.678Z,5.25
2018-09-29T17:51:40.387Z,4.03
2018-09-29T17:54:09.353Z,11.12
2018-09-29T17:56:38.332Z,6.58
2018-09-29T17:59:07.347Z,6.20
2018-09-29T18:01:36.148Z,4.78
2018-09-29T18:04:05.252Z,4.67
2018-09-29T18:06:35.649Z,5.12
2018-09-29T18:09:05.767Z,6.15
2018-09-29T18:11:34.462Z,5.53
2018-09-29T18:14:03.064Z,8.43
2018-09-29T18:16:31.691Z,3.62
2018-09-29T18:19:01.675Z,7.22
2018-09-29T18:21:30.630Z,5.70
2018-09-29T18:23:59.324Z,4.10
2018-09-29T18:26:30.985Z,9.05
2018-09-29T18:29:00.391Z,7.55
2018-09-29T18:31:29.428Z,7.90
2018-09-29T18:33:58.283Z,4.33
2018-09-29T18:36:27.021Z,7.33
2018-09-29T18:38:55.699Z,7.72
2018-09-29T18:41:24.357Z,6.83
2018-09-29T18:43:58.428Z,6.10
2018-09-29T18:46:27.264Z,5.55
2018-09-29T18:48:55.917Z,7.87
2018-09-29T18:51:24.925Z,4.37
2018-09-29T18:53:57.361Z,9.55
2018-09-29T18:56:28.943Z,7.10
2018-09-29T18:58:59.336Z,6.42
2018-09-29T19:01:27.978Z,5.78
2018-09-29T19:04:09.057Z,8.10
2018-09-29T19:06:38.621Z,6.05
2018-09-29T19:09:13.062Z,4.60
2018-09-29T19:11:42.598Z,15.08
2018-09-29T19:14:11.354Z,15.90
2018-09-29T19:16:40.356Z,28.65
2018-09-29T19:19:09.160Z,29.17
2018-09-29T19:21:37.953Z,18.17
2018-09-29T19:24:07.035Z,10.88
2018-09-29T19:26:36.662Z,13.55
2018-09-29T19:29:05.484Z,7.83
2018-09-29T19:31:34.292Z,6.25
2018-09-29T19:34:03.088Z,4.10
2018-09-29T19:36:31.847Z,4.55
2018-09-29T19:39:00.603Z,5.92
2018-09-29T19:41:29.691Z,9.88
2018-09-29T19:43:59.018Z,6.53
2018-09-29T19:46:28.067Z,8.90
2018-09-29T19:48:56.850Z,5.67
2018-09-29T19:51:27.160Z,17.27
2018-09-29T19:53:55.814Z,10.40
2018-09-29T19:56:25.485Z,8.53
2018-09-29T19:58:54.213Z,9.10
2018-09-29T20:01:23.051Z,5.50
2018-09-29T20:03:52.398Z,7.97
2018-09-29T20:06:21.266Z,6.17
2018-09-29T20:08:50.222Z,6.30
2018-09-29T20:11:20.662Z,7.00
2018-09-29T20:13:49.690Z,6.45
2018-09-29T20:16:21.472Z,5.55
2018-09-29T20:18:52.775Z,6.55
2018-09-29T20:21:22.005Z,6.12
2018-09-29T20:23:53.904Z,7.12
2018-09-29T20:26:22.639Z,10.35
2018-09-29T20:28:54.029Z,9.30
2018-09-29T20:31:23.991Z,7.00
2018-09-29T20:33:54.336Z,14.98
2018-09-29T20:36:23.019Z,9.88
2018-09-29T20:38:51.658Z,8.83
2018-09-29T20:41:20.465Z,12.10
2018-09-29T20:43:49.422Z,11.35
2018-09-29T20:46:20.675Z,18.17
2018-09-29T20:48:49.853Z,7.12
2018-09-29T20:51:20.137Z,8.95
2018-09-29T20:53:50.391Z,10.53
2018-09-29T20:56:22.176Z,6.03
2018-09-29T20:58:51.067Z,10.98
2018-09-29T21:01:21.959Z,10.63
2018-09-29T21:03:50.832Z,9.58
2018-09-29T21:06:23.187Z,8.38
2018-09-29T21:08:51.903Z,6.97
2018-09-29T21:11:23.043Z,6.12
2018-09-29T21:13:52.208Z,20.60
2018-09-29T21:16:22.814Z,16.42
2018-09-29T21:18:56.794Z,29.57
2018-09-29T21:21:25.811Z,46.75
2018-09-29T21:23:58.864Z,18.25
2018-09-29T21:26:28.237Z,8.15
2018-09-29T21:29:03.390Z,5.45
2018-09-29T21:31:32.462Z,5.75
2018-09-29T21:34:16.408Z,9.68
2018-09-29T21:36:58.487Z,6.50
2018-09-29T21:39:27.618Z,5.62
2018-09-29T21:41:56.595Z,4.80
2018-09-29T21:44:25.557Z,6.67
2018-09-29T21:46:54.513Z,5.67
2018-09-29T21:49:23.572Z,9.88
2018-09-29T21:52:03.448Z,5.20
2018-09-29T21:54:34.045Z,4.95
2018-09-29T21:57:02.999Z,6.92
2018-09-29T21:59:34.520Z,9.77
2018-09-29T22:02:03.285Z,7.17
2018-09-29T22:04:32.327Z,9.98
2018-09-29T22:07:01.534Z,3.90
2018-09-29T22:09:30.220Z,11.00
2018-09-29T22:11:58.855Z,8.60
2018-09-29T22:14:27.682Z,13.60
2018-09-29T22:16:56.397Z,5.90
2018-09-29T22:19:26.570Z,7.33
2018-09-29T22:21:55.315Z,11.88
2018-09-29T22:24:24.326Z,5.92
2018-09-29T22:26:53.105Z,12.50
2018-09-29T22:29:21.879Z,12.10
2018-09-29T22:31:50.593Z,8.53
2018-09-29T22:34:21.505Z,5.85
2018-09-29T22:36:50.552Z,9.93
2018-09-29T22:39:19.436Z,7.60
2018-09-29T22:41:48.236Z,9.80
2018-09-29T22:44:24.824Z,12.60
2018-09-29T22:46:54.103Z,5.67
2018-09-29T22:49:22.903Z,7.00
2018-09-29T22:51:52.735Z,7.78
2018-09-29T22:54:21.826Z,8.10
2018-09-29T22:56:50.518Z,6.58
2018-09-29T22:59:19.327Z,3.83
2018-09-29T23:01:48.012Z,3.83
2018-09-29T23:04:16.615Z,7.08
2018-09-29T23:06:45.326Z,5.70
2018-09-29T23:09:14.089Z,5.92
2018-09-29T23:11:42.689Z,12.28
2018-09-29T23:14:16.537Z,5.70
2018-09-29T23:16:52.363Z,8.13
2018-09-29T23:19:22.792Z,7.72
2018-09-29T23:21:52.330Z,5.90
2018-09-29T23:24:22.482Z,3.02
2018-09-29T23:26:51.149Z,5.47
2018-09-29T23:29:20.479Z,13.45
2018-09-29T23:31:49.560Z,16.97
2018-09-29T23:34:20.493Z,12.80
2018-09-29T23:36:50.682Z,39.80
2018-09-29T23:39:20.709Z,20.75
2018-09-29T23:41:49.617Z,10.03
2018-09-29T23:44:23.447Z,13.60
2018-09-29T23:46:52.415Z,16.35
2018-09-29T23:49:21.043Z,7.20
2018-09-29T23:51:49.728Z,15.10
2018-09-29T23:54:18.440Z,21.33
2018-09-29T23:56:47.144Z,13.43
2018-09-29T23:59:26.896Z,16.00
